Time;durP1;ratioP1;P1;durP2;ratioP2;P2;SDS_P1;SDS_P2;PMS_P1;PMS_P2;Temp;Humidity;BMP_temperature;BMP_pressure;BME280_temperature;BME280_humidity;BME280_pressure;Samples;Min_cycle;Max_cycle;Signal;HPM_P1;HPM_P2
2022/06/30 00:02:23;;;;;;;5.78;3.80;;;27.20;70.00;;;;;;5071681;28;20040;-66
2022/06/30 00:04:49;;;;;;;7.25;3.95;;;27.20;70.10;;;;;;5073950;28;20040;-67
2022/06/30 00:07:15;;;;;;;8.02;4.05;;;27.10;70.10;;;;;;5062488;28;20040;-66
2022/06/30 00:09:41;;;;;;;5.22;3.50;;;27.10;69.90;;;;;;5061647;28;20037;-66
2022/06/30 00:12:07;;;;;;;5.50;3.50;;;27.10;70.00;;;;;;5072738;28;20027;-66
2022/06/30 00:14:32;;;;;;;5.22;3.30;;;27.10;70.00;;;;;;5066966;28;20388;-66
2022/06/30 00:16:58;;;;;;;6.85;3.22;;;27.00;70.10;;;;;;5073955;28;20025;-66
2022/06/30 00:19:24;;;;;;;5.18;3.40;;;27.10;70.00;;;;;;5075065;28;20021;-66
2022/06/30 00:21:50;;;;;;;10.70;3.70;;;27.00;70.00;;;;;;5073164;28;20044;-66
2022/06/30 00:24:15;;;;;;;6.40;3.33;;;27.00;69.90;;;;;;5074717;28;20040;-66
2022/06/30 00:26:41;;;;;;;5.70;3.60;;;26.90;69.80;;;;;;5060704;28;20119;-66
2022/06/30 00:29:07;;;;;;;5.45;3.80;;;27.00;69.90;;;;;;5060364;28;20037;-66
2022/06/30 00:31:32;;;;;;;7.22;3.40;;;26.90;69.90;;;;;;5072333;28;20078;-66
2022/06/30 00:33:58;;;;;;;6.07;3.30;;;26.90;70.20;;;;;;5066586;28;20523;-66
2022/06/30 00:36:24;;;;;;;4.95;3.85;;;26.90;70.40;;;;;;5059699;28;20044;-66
2022/06/30 00:38:49;;;;;;;9.18;4.05;;;26.90;70.30;;;;;;5074679;28;20024;-66
2022/06/30 00:41:18;;;;;;;5.05;3.60;;;26.90;70.40;;;;;;5064042;28;20539;-66
2022/06/30 00:43:45;;;;;;;7.78;3.97;;;26.80;70.70;;;;;;5073293;28;20037;-66
2022/06/30 00:46:11;;;;;;;5.47;3.70;;;26.80;70.70;;;;;;5064480;28;20383;-66
2022/06/30 00:48:37;;;;;;;5.10;4.03;;;26.80;70.80;;;;;;5066334;28;20123;-66
2022/06/30 00:51:06;;;;;;;9.13;4.35;;;26.70;71.10;;;;;;5066820;28;20047;-66
2022/06/30 00:53:38;;;;;;;6.32;4.40;;;26.70;71.00;;;;;;5073450;28;20115;-66
2022/06/30 00:56:05;;;;;;;6.78;4.82;;;26.60;71.70;;;;;;5065515;28;20123;-66
2022/06/30 00:58:37;;;;;;;12.05;5.80;;;26.60;72.00;;;;;;5065203;28;20032;-65
2022/06/30 01:01:06;;;;;;;14.25;5.20;;;26.60;72.20;;;;;;5073307;28;20085;-66
2022/06/30 01:03:33;;;;;;;9.73;5.32;;;26.60;72.30;;;;;;5072378;28;20473;-66
2022/06/30 01:06:00;;;;;;;8.75;5.65;;;26.50;72.40;;;;;;5073177;28;20056;-67
2022/06/30 01:08:28;;;;;;;9.48;4.60;;;26.50;72.90;;;;;;5067282;28;20036;-67
2022/06/30 01:13:38;;;;;;;9.48;4.50;;;26.50;72.60;;;;;;5057924;28;20078;-67
2022/06/30 01:16:04;;;;;;;10.95;4.85;;;26.40;72.70;;;;;;5069408;28;20024;-67
2022/06/30 01:18:33;;;;;;;10.90;4.95;;;26.40;72.30;;;;;;5071578;28;20032;-67
2022/06/30 01:21:00;;;;;;;9.82;4.93;;;26.30;72.50;;;;;;5073413;28;20069;-66
2022/06/30 01:23:26;;;;;;;6.90;5.20;;;26.20;72.80;;;;;;5054218;28;20465;-67
2022/06/30 01:25:52;;;;;;;8.60;5.72;;;26.30;72.90;;;;;;5056541;28;20047;-67
2022/06/30 01:28:19;;;;;;;8.73;5.35;;;26.20;72.70;;;;;;5056651;28;20477;-67
2022/06/30 01:30:44;;;;;;;7.88;5.28;;;26.20;72.60;;;;;;5053638;28;20036;-67
2022/06/30 01:33:10;;;;;;;14.10;5.38;;;26.20;72.60;;;;;;5052821;28;20024;-67
2022/06/30 01:35:36;;;;;;;7.00;5.40;;;26.10;73.70;;;;;;5054233;28;20036;-67
2022/06/30 01:38:02;;;;;;;7.07;5.10;;;26.10;74.20;;;;;;5070006;28;20365;-67
2022/06/30 01:40:30;;;;;;;6.47;4.35;;;26.10;74.10;;;;;;5066222;28;20025;-67
2022/06/30 01:42:56;;;;;;;7.25;4.53;;;26.00;74.00;;;;;;5053852;28;20037;-67
2022/06/30 01:45:23;;;;;;;8.35;4.10;;;26.00;73.90;;;;;;5065078;28;20389;-68
2022/06/30 01:47:50;;;;;;;8.55;3.90;;;25.90;74.20;;;;;;5058414;28;20033;-67
2022/06/30 01:50:22;;;;;;;6.45;3.70;;;25.90;74.00;;;;;;5073573;28;20024;-67
2022/06/30 01:52:48;;;;;;;5.50;3.47;;;25.90;73.50;;;;;;5069566;28;20032;-67
2022/06/30 01:55:14;;;;;;;8.70;3.65;;;25.90;73.70;;;;;;5072620;28;20025;-67
2022/06/30 01:57:40;;;;;;;5.65;3.25;;;25.80;72.90;;;;;;5065348;28;20025;-67
2022/06/30 02:00:10;;;;;;;4.63;2.83;;;25.80;73.10;;;;;;5052313;28;20365;-67
2022/06/30 02:02:37;;;;;;;5.55;3.08;;;25.80;73.70;;;;;;5062294;28;20036;-67
2022/06/30 02:05:04;;;;;;;5.63;3.00;;;25.80;74.20;;;;;;5069729;28;20029;-68
2022/06/30 02:07:30;;;;;;;6.63;3.03;;;25.70;74.00;;;;;;5068071;28;20067;-67
2022/06/30 02:09:56;;;;;;;7.70;3.03;;;25.70;73.60;;;;;;5071194;28;20071;-67
2022/06/30 02:15:09;;;;;;;3.30;2.65;;;25.60;73.10;;;;;;5068916;28;20046;-67
2022/06/30 02:17:35;;;;;;;8.73;3.17;;;25.60;73.00;;;;;;5067410;28;20456;-67
2022/06/30 02:20:07;;;;;;;22.17;3.47;;;25.60;72.80;;;;;;5068188;28;20029;-68
2022/06/30 02:22:35;;;;;;;4.25;2.90;;;25.60;72.40;;;;;;5070344;28;20533;-67
2022/06/30 02:25:01;;;;;;;6.10;3.10;;;25.50;72.40;;;;;;5070452;28;20044;-65
2022/06/30 02:27:27;;;;;;;5.35;2.97;;;25.50;72.40;;;;;;5071612;28;20060;-65
2022/06/30 02:29:53;;;;;;;5.82;3.00;;;25.50;72.80;;;;;;5058170;28;20083;-65
2022/06/30 02:32:20;;;;;;;7.85;3.15;;;25.40;72.50;;;;;;5060819;28;20057;-65
2022/06/30 02:34:45;;;;;;;6.35;3.20;;;25.40;72.70;;;;;;5057679;28;20553;-65
2022/06/30 02:37:11;;;;;;;8.00;2.88;;;25.40;73.00;;;;;;5058852;28;20051;-65
2022/06/30 02:39:38;;;;;;;5.80;2.85;;;25.40;72.80;;;;;;5053121;28;20067;-67
2022/06/30 02:42:04;;;;;;;6.88;2.85;;;25.30;72.60;;;;;;5052115;28;20507;-65
2022/06/30 02:44:29;;;;;;;4.43;2.80;;;25.30;73.80;;;;;;5070171;28;20047;-65
2022/06/30 02:46:55;;;;;;;5.10;2.70;;;25.20;74.70;;;;;;5060441;28;20021;-65
2022/06/30 02:49:22;;;;;;;7.32;3.05;;;25.20;74.00;;;;;;5054962;28;20044;-65
2022/06/30 02:51:48;;;;;;;5.35;2.80;;;25.20;74.20;;;;;;5067216;28;20491;-65
2022/06/30 02:54:14;;;;;;;4.68;2.42;;;25.20;73.90;;;;;;5057041;28;20370;-65
2022/06/30 02:56:40;;;;;;;9.50;3.08;;;25.10;73.40;;;;;;5060377;28;20089;-65
2022/06/30 02:59:06;;;;;;;5.38;2.60;;;25.10;73.90;;;;;;5065814;28;20039;-65
2022/06/30 03:01:32;;;;;;;8.02;2.78;;;25.00;74.10;;;;;;5061298;28;20495;-65
2022/06/30 03:04:01;;;;;;;5.05;2.78;;;25.00;74.10;;;;;;5055292;28;20049;-65
2022/06/30 03:06:28;;;;;;;7.35;3.03;;;25.00;74.30;;;;;;5052682;28;20416;-65
2022/06/30 03:08:58;;;;;;;4.50;2.72;;;25.00;74.60;;;;;;5064753;28;20120;-65
2022/06/30 03:11:25;;;;;;;4.35;2.35;;;25.00;74.50;;;;;;5051914;28;20070;-65
2022/06/30 03:13:51;;;;;;;6.68;2.83;;;24.90;75.30;;;;;;5070221;28;20087;-65
2022/06/30 03:16:17;;;;;;;6.20;2.90;;;24.90;75.50;;;;;;5059691;28;20025;-65
2022/06/30 03:18:46;;;;;;;5.53;2.40;;;24.90;75.00;;;;;;5058651;28;20064;-65
2022/06/30 03:21:12;;;;;;;6.85;2.90;;;24.90;74.00;;;;;;5064078;28;20056;-65
2022/06/30 03:23:38;;;;;;;5.50;2.55;;;24.80;73.50;;;;;;5060821;28;20098;-65
2022/06/30 03:26:06;;;;;;;5.78;3.00;;;24.70;73.30;;;;;;5064994;28;20033;-65
2022/06/30 03:28:32;;;;;;;4.32;2.47;;;24.70;73.40;;;;;;5069544;28;20044;-65
2022/06/30 03:30:59;;;;;;;9.57;3.03;;;24.70;73.50;;;;;;5071358;28;20468;-65
2022/06/30 03:33:25;;;;;;;6.28;3.10;;;24.70;73.40;;;;;;5055513;28;20040;-65
2022/06/30 03:35:52;;;;;;;5.30;2.60;;;24.70;74.00;;;;;;5058105;28;20033;-64
2022/06/30 03:38:18;;;;;;;3.92;2.47;;;24.70;73.80;;;;;;5067536;28;20029;-65
2022/06/30 03:40:44;;;;;;;7.78;2.53;;;24.70;74.50;;;;;;5056086;28;20037;-65
2022/06/30 03:43:10;;;;;;;7.35;2.40;;;24.60;76.80;;;;;;5064547;28;20036;-65
2022/06/30 03:45:36;;;;;;;4.95;2.67;;;24.60;76.60;;;;;;5071043;28;20479;-65
2022/06/30 03:48:04;;;;;;;4.97;2.55;;;24.60;76.60;;;;;;5064951;28;20024;-65
2022/06/30 03:50:32;;;;;;;4.00;2.47;;;24.60;76.10;;;;;;5060081;28;20142;-65
2022/06/30 03:52:58;;;;;;;8.05;2.40;;;24.50;77.20;;;;;;5067112;28;20037;-65
2022/06/30 03:55:24;;;;;;;6.30;2.45;;;24.50;77.30;;;;;;5057671;28;20028;-65
2022/06/30 03:57:50;;;;;;;4.00;2.88;;;24.50;76.30;;;;;;5071905;28;20129;-65
2022/06/30 04:00:16;;;;;;;5.70;2.40;;;24.40;75.40;;;;;;5061478;28;20033;-65
2022/06/30 04:02:42;;;;;;;7.25;2.67;;;24.50;75.10;;;;;;5066551;28;20041;-65
2022/06/30 04:05:08;;;;;;;6.00;2.45;;;24.40;74.80;;;;;;5069764;28;20547;-65
2022/06/30 04:07:41;;;;;;;4.18;2.45;;;24.40;74.20;;;;;;5074574;28;20479;-65
2022/06/30 04:10:08;;;;;;;;;;;24.30;74.20;;;;;;5070737;28;20033;-65
2022/06/30 04:12:33;;;;;;;4.45;2.35;;;24.30;76.50;;;;;;5055379;28;19909;-65
2022/06/30 04:14:59;;;;;;;7.78;2.65;;;24.30;75.70;;;;;;5070615;28;20017;-65
2022/06/30 04:17:25;;;;;;;6.75;2.67;;;24.30;75.40;;;;;;5065673;28;20033;-65
2022/06/30 04:19:50;;;;;;;4.95;2.30;;;24.20;75.00;;;;;;5071405;28;20025;-65
2022/06/30 04:22:16;;;;;;;4.20;2.25;;;24.20;75.40;;;;;;5074041;28;20078;-65
2022/06/30 04:24:42;;;;;;;4.05;2.40;;;24.20;75.90;;;;;;5058931;28;20052;-65
2022/06/30 04:27:07;;;;;;;4.28;2.47;;;24.20;75.10;;;;;;5066038;28;20464;-65
2022/06/30 04:29:33;;;;;;;7.75;2.63;;;24.10;75.40;;;;;;5073655;28;20032;-65
2022/06/30 04:34:43;;;;;;;5.85;2.45;;;24.10;75.70;;;;;;5073713;28;20040;-65
2022/06/30 04:37:09;;;;;;;5.90;2.65;;;24.10;75.70;;;;;;5062668;28;20111;-65
2022/06/30 04:39:35;;;;;;;5.95;2.80;;;24.10;75.80;;;;;;5073232;28;20047;-65
2022/06/30 04:42:00;;;;;;;6.78;2.70;;;24.00;75.50;;;;;;5073678;28;20025;-66
2022/06/30 04:44:26;;;;;;;6.05;2.40;;;24.00;75.70;;;;;;5073858;28;20025;-66
2022/06/30 04:46:52;;;;;;;5.97;2.47;;;24.00;76.10;;;;;;5075453;28;20028;-68
2022/06/30 04:49:17;;;;;;;6.20;2.60;;;24.00;76.80;;;;;;5068448;28;20058;-66
2022/06/30 04:51:43;;;;;;;6.20;2.33;;;24.00;77.90;;;;;;5067235;28;20129;-66
2022/06/30 04:54:09;;;;;;;7.00;2.40;;;24.00;78.00;;;;;;5072571;28;20036;-66
2022/06/30 04:56:34;;;;;;;3.17;2.05;;;24.00;78.50;;;;;;5070844;28;20024;-66
2022/06/30 04:59:00;;;;;;;3.90;1.95;;;24.00;78.80;;;;;;5072857;28;20404;-66
2022/06/30 05:01:26;;;;;;;4.45;2.40;;;23.90;78.90;;;;;;5070755;28;20031;-68
2022/06/30 05:03:52;;;;;;;3.15;2.30;;;24.00;78.90;;;;;;5068865;28;20044;-66
2022/06/30 05:06:17;;;;;;;4.10;2.30;;;24.00;79.20;;;;;;5072105;28;20480;-66
2022/06/30 05:08:43;;;;;;;4.97;2.63;;;24.00;78.90;;;;;;5072207;28;20043;-65
2022/06/30 05:11:09;;;;;;;3.33;2.40;;;24.00;78.90;;;;;;5071588;28;20123;-66
2022/06/30 05:13:34;;;;;;;8.18;2.40;;;24.00;79.00;;;;;;5069672;28;20048;-65
2022/06/30 05:16:02;;;;;;;4.00;2.55;;;24.00;79.50;;;;;;5071043;28;20090;-65
2022/06/30 05:18:28;;;;;;;6.43;2.40;;;24.00;79.10;;;;;;5069844;28;20029;-67
2022/06/30 05:20:56;;;;;;;3.55;2.22;;;24.00;79.40;;;;;;5071846;28;20024;-66
2022/06/30 05:23:22;;;;;;;6.95;2.22;;;24.00;79.30;;;;;;5071111;28;20032;-66
2022/06/30 05:28:35;;;;;;;6.13;2.72;;;24.10;79.40;;;;;;5072421;28;20128;-66
2022/06/30 05:31:04;;;;;;;6.25;2.28;;;24.00;78.80;;;;;;5066737;28;20029;-66
2022/06/30 05:33:30;;;;;;;6.35;2.35;;;24.00;78.50;;;;;;5066213;28;20087;-65
2022/06/30 05:35:58;;;;;;;5.40;2.92;;;24.10;78.70;;;;;;5052494;28;20031;-66
2022/06/30 05:38:24;;;;;;;3.35;2.35;;;24.10;79.00;;;;;;5057205;28;20032;-66
2022/06/30 05:40:49;;;;;;;5.80;2.58;;;24.10;79.40;;;;;;5062453;28;20384;-66
2022/06/30 05:43:16;;;;;;;3.53;2.35;;;24.10;79.50;;;;;;5066695;28;20044;-66
2022/06/30 05:45:45;;;;;;;4.95;2.88;;;24.20;79.30;;;;;;5067711;28;20046;-66
2022/06/30 05:48:11;;;;;;;6.05;2.33;;;24.20;79.40;;;;;;5069190;28;20078;-66
2022/06/30 05:50:37;;;;;;;4.15;2.55;;;24.20;79.40;;;;;;5070435;28;20067;-66
2022/06/30 05:53:03;;;;;;;5.75;2.75;;;24.20;79.60;;;;;;5069927;28;20036;-65
2022/06/30 05:55:28;;;;;;;6.40;2.40;;;24.20;79.40;;;;;;5061720;28;20415;-66
2022/06/30 05:58:01;;;;;;;10.43;2.50;;;24.20;78.30;;;;;;5050863;28;20043;-66
2022/06/30 06:00:29;;;;;;;4.13;2.70;;;24.30;78.00;;;;;;5058986;28;20391;-66
2022/06/30 06:02:55;;;;;;;3.25;2.20;;;24.30;78.10;;;;;;5071358;28;20040;-66
2022/06/30 06:05:21;;;;;;;6.00;2.88;;;24.30;78.20;;;;;;5060829;28;20048;-66
2022/06/30 06:07:49;;;;;;;9.50;2.80;;;24.30;77.70;;;;;;5071477;28;20036;-65
2022/06/30 06:10:15;;;;;;;5.30;2.72;;;24.30;76.90;;;;;;5074211;28;20074;-66
2022/06/30 06:12:43;;;;;;;8.35;2.70;;;24.30;77.50;;;;;;5072316;28;20119;-65
2022/06/30 06:15:13;;;;;;;5.03;2.80;;;24.30;77.60;;;;;;5062813;28;20036;-66
2022/06/30 06:17:44;;;;;;;7.18;2.80;;;24.30;77.50;;;;;;5061140;28;20086;-65
2022/06/30 06:20:15;;;;;;;7.00;2.75;;;24.30;77.60;;;;;;5070540;28;20047;-66
2022/06/30 06:22:41;;;;;;;9.77;3.08;;;24.30;77.60;;;;;;5072680;28;20457;-65
2022/06/30 06:25:08;;;;;;;9.25;3.47;;;24.30;77.70;;;;;;5058635;28;20063;-66
2022/06/30 06:27:34;;;;;;;6.45;3.03;;;24.30;78.30;;;;;;5071986;28;20032;-66
2022/06/30 06:30:03;;;;;;;4.47;2.50;;;24.40;78.20;;;;;;5071659;28;20077;-66
2022/06/30 06:32:29;;;;;;;15.23;3.20;;;24.40;78.00;;;;;;5070894;28;20033;-66
2022/06/30 06:34:55;;;;;;;4.63;2.75;;;24.40;77.90;;;;;;5070119;28;20119;-66
2022/06/30 06:37:20;;;;;;;3.33;2.30;;;24.40;78.40;;;;;;5059221;28;20037;-66
2022/06/30 06:39:46;;;;;;;8.77;2.92;;;24.40;78.20;;;;;;5065632;28;20033;-66
2022/06/30 06:42:12;;;;;;;4.20;2.75;;;24.50;78.70;;;;;;5064516;28;20025;-66
2022/06/30 06:44:38;;;;;;;4.20;2.50;;;24.50;78.50;;;;;;5052193;28;20028;-66
2022/06/30 06:47:05;;;;;;;4.97;2.78;;;24.50;78.90;;;;;;5052012;28;20507;-66
2022/06/30 06:49:32;;;;;;;8.02;2.65;;;24.50;78.90;;;;;;5071180;28;20052;-65
2022/06/30 06:51:58;;;;;;;17.35;3.13;;;24.60;79.20;;;;;;5069586;28;20021;-66
2022/06/30 06:54:27;;;;;;;7.47;3.38;;;24.60;79.20;;;;;;5070697;28;20380;-66
2022/06/30 06:56:52;;;;;;;5.85;3.13;;;24.60;79.10;;;;;;5066666;28;20083;-66
2022/06/30 06:59:18;;;;;;;4.80;2.85;;;24.60;79.50;;;;;;5052457;28;20024;-66
2022/06/30 07:01:47;;;;;;;6.32;2.70;;;24.60;79.60;;;;;;5068487;28;20486;-66
2022/06/30 07:04:12;;;;;;;6.68;3.40;;;24.60;80.10;;;;;;5060200;28;20113;-66
2022/06/30 07:06:38;;;;;;;5.95;3.33;;;24.70;80.30;;;;;;5064529;28;20441;-66
2022/06/30 07:09:07;;;;;;;5.38;3.22;;;24.70;80.10;;;;;;5063311;28;20044;-66
2022/06/30 07:11:33;;;;;;;4.70;3.22;;;24.80;80.10;;;;;;5070804;28;20051;-67
2022/06/30 07:13:58;;;;;;;14.48;3.75;;;24.90;79.80;;;;;;5071923;28;20115;-67
2022/06/30 07:16:24;;;;;;;5.65;3.25;;;24.90;79.60;;;;;;5057586;28;20025;-67
2022/06/30 07:18:50;;;;;;;9.30;3.55;;;24.90;79.20;;;;;;5052703;28;20055;-67
2022/06/30 07:21:15;;;;;;;6.47;3.20;;;24.90;79.40;;;;;;5064588;28;20032;-67
2022/06/30 07:23:42;;;;;;;9.07;3.80;;;25.00;79.60;;;;;;5070854;28;20544;-67
2022/06/30 07:26:11;;;;;;;8.13;3.25;;;24.90;79.40;;;;;;5058125;28;20108;-67
2022/06/30 07:28:37;;;;;;;7.43;3.33;;;25.00;79.20;;;;;;5064579;28;20033;-67
2022/06/30 07:31:03;;;;;;;7.30;4.00;;;25.00;79.60;;;;;;5063896;28;20146;-67
2022/06/30 07:33:28;;;;;;;8.30;3.80;;;25.00;80.00;;;;;;5070520;28;20119;-67
2022/06/30 07:35:54;;;;;;;9.77;3.42;;;25.00;79.80;;;;;;5070452;28;20039;-67
2022/06/30 07:38:20;;;;;;;9.40;4.40;;;25.10;80.10;;;;;;5070955;28;20028;-67
2022/06/30 07:40:46;;;;;;;9.43;4.70;;;25.10;80.80;;;;;;5070256;28;20077;-67
2022/06/30 07:43:12;;;;;;;12.02;3.40;;;25.20;80.40;;;;;;5051809;28;20044;-67
2022/06/30 07:45:37;;;;;;;6.63;3.42;;;25.20;80.50;;;;;;5064601;28;20032;-67
2022/06/30 07:48:03;;;;;;;8.63;4.20;;;25.20;80.50;;;;;;5059564;28;20035;-67
2022/06/30 07:50:32;;;;;;;9.57;3.72;;;25.20;80.50;;;;;;5070758;28;20029;-67
2022/06/30 07:52:58;;;;;;;8.90;3.30;;;25.30;80.90;;;;;;5062619;28;20032;-67
2022/06/30 07:55:24;;;;;;;8.25;3.42;;;25.40;80.90;;;;;;5066281;28;20024;-67
2022/06/30 07:57:49;;;;;;;7.88;4.40;;;25.40;81.00;;;;;;5059684;28;20453;-67
2022/06/30 08:00:16;;;;;;;6.28;3.72;;;25.40;81.20;;;;;;5050678;28;20056;-67
2022/06/30 08:02:42;;;;;;;8.13;4.00;;;25.40;81.30;;;;;;5060693;28;20040;-67
2022/06/30 08:05:08;;;;;;;9.25;4.20;;;25.50;81.40;;;;;;5070616;28;20029;-67
2022/06/30 08:07:34;;;;;;;6.80;3.95;;;25.50;81.50;;;;;;5074259;28;20067;-67
2022/06/30 08:10:03;;;;;;;7.93;4.53;;;25.50;81.90;;;;;;5073578;28;20028;-67
2022/06/30 08:12:29;;;;;;;6.63;3.97;;;25.60;82.10;;;;;;5073927;28;20035;-67
2022/06/30 08:14:55;;;;;;;6.03;4.28;;;25.60;81.80;;;;;;5068810;28;20021;-67
2022/06/30 08:17:21;;;;;;;14.70;4.47;;;25.70;82.00;;;;;;5059856;28;20021;-67
2022/06/30 08:19:46;;;;;;;8.05;4.45;;;25.70;82.20;;;;;;5069491;28;20028;-67
2022/06/30 08:22:12;;;;;;;7.68;4.13;;;25.80;82.50;;;;;;5067504;28;20049;-67
2022/06/30 08:24:38;;;;;;;5.78;3.63;;;25.70;82.30;;;;;;5069185;28;20029;-67
2022/06/30 08:27:04;;;;;;;10.63;4.30;;;25.90;82.20;;;;;;5074601;28;20487;-67
2022/06/30 08:29:32;;;;;;;6.50;4.18;;;25.90;82.20;;;;;;5060908;28;20116;-67
2022/06/30 08:32:01;;;;;;;7.93;4.38;;;26.00;82.90;;;;;;5066168;28;20025;-67
2022/06/30 08:34:27;;;;;;;7.95;4.82;;;25.90;83.10;;;;;;5055144;28;21723;-67
2022/06/30 08:36:53;;;;;;;14.88;4.93;;;26.00;82.90;;;;;;5055086;28;20033;-67
2022/06/30 08:42:05;;;;;;;6.03;4.10;;;26.10;83.20;;;;;;5065731;28;20033;-67
2022/06/30 08:44:35;;;;;;;5.10;4.00;;;26.20;83.20;;;;;;5073681;28;20048;-67
2022/06/30 08:47:02;;;;;;;11.65;4.47;;;26.20;82.90;;;;;;5073416;28;20106;-67
2022/06/30 08:49:28;;;;;;;10.77;4.30;;;26.30;83.60;;;;;;5067279;28;20385;-67
2022/06/30 08:51:57;;;;;;;13.23;4.88;;;26.30;83.20;;;;;;5067600;28;20032;-67
2022/06/30 08:54:24;;;;;;;12.48;4.80;;;26.30;83.20;;;;;;5060904;28;20111;-67
2022/06/30 08:56:52;;;;;;;9.85;4.80;;;26.40;83.40;;;;;;5069609;28;20025;-68
2022/06/30 08:59:20;;;;;;;8.90;4.60;;;26.40;83.00;;;;;;5072520;28;20441;-68
2022/06/30 09:01:46;;;;;;;6.55;4.38;;;26.50;83.20;;;;;;5070769;28;20086;-69
2022/06/30 09:04:13;;;;;;;14.45;4.70;;;26.50;83.20;;;;;;5073412;28;20468;-69
2022/06/30 09:06:42;;;;;;;7.50;4.70;;;26.60;83.00;;;;;;5070471;28;20056;-69
2022/06/30 09:09:08;;;;;;;8.43;4.60;;;26.70;83.30;;;;;;5072534;28;20028;-69
2022/06/30 09:11:54;;;;;;;11.38;5.15;;;26.70;83.10;;;;;;5073226;28;20139;-68
2022/06/30 09:14:34;;;;;;;11.57;4.30;;;26.80;83.00;;;;;;5069334;28;20055;-68
2022/06/30 09:17:05;;;;;;;8.13;4.45;;;26.80;83.40;;;;;;5064118;28;20025;-68
2022/06/30 09:19:31;;;;;;;8.80;4.75;;;26.90;83.60;;;;;;5069437;28;20461;-68
2022/06/30 09:22:04;;;;;;;19.00;5.45;;;26.90;83.20;;;;;;5067689;28;20052;-68
2022/06/30 09:24:30;;;;;;;8.20;4.63;;;26.90;82.80;;;;;;5067027;28;20040;-68
2022/06/30 09:27:16;;;;;;;7.35;4.70;;;27.00;82.60;;;;;;5060574;28;20464;-68
2022/06/30 09:30:16;;;;;;;13.13;4.55;;;27.00;82.80;;;;;;5063288;28;20036;-68
2022/06/30 09:33:04;;;;;;;7.13;4.60;;;27.10;82.70;;;;;;5051619;28;20138;-68
2022/06/30 09:35:31;;;;;;;8.80;4.53;;;27.20;82.90;;;;;;5059570;28;20599;-68
2022/06/30 09:38:10;;;;;;;9.13;4.93;;;27.20;82.80;;;;;;5072512;28;20033;-66
2022/06/30 09:40:37;;;;;;;10.90;4.90;;;27.30;81.90;;;;;;5059440;28;20031;-66
2022/06/30 09:43:04;;;;;;;6.85;4.82;;;27.30;81.90;;;;;;5053735;28;20037;-66
2022/06/30 09:45:41;;;;;;;7.68;4.57;;;27.30;82.00;;;;;;5065076;28;20082;-66
2022/06/30 09:48:10;;;;;;;8.43;4.85;;;27.40;81.90;;;;;;5054004;28;20111;-66
2022/06/30 09:50:36;;;;;;;7.80;4.65;;;27.40;82.00;;;;;;5060887;28;20131;-66
2022/06/30 09:53:10;;;;;;;6.90;4.57;;;27.40;81.70;;;;;;5068407;28;20020;-65
2022/06/30 09:55:40;;;;;;;8.05;4.20;;;27.40;82.00;;;;;;5068085;28;20473;-66
2022/06/30 09:58:06;;;;;;;8.68;4.85;;;27.50;82.30;;;;;;5058272;28;20040;-68
2022/06/30 10:00:46;;;;;;;8.65;4.35;;;27.50;82.00;;;;;;5067218;28;20029;-68
2022/06/30 10:03:12;;;;;;;7.50;4.47;;;27.50;81.20;;;;;;5068863;28;20075;-68
2022/06/30 10:05:43;;;;;;;6.50;4.97;;;27.50;81.30;;;;;;5064384;28;20512;-67
2022/06/30 10:08:10;;;;;;;6.18;3.90;;;27.50;81.30;;;;;;5066280;28;20122;-66
2022/06/30 10:10:36;;;;;;;12.82;5.00;;;27.60;81.70;;;;;;5070606;28;20090;-66
2022/06/30 10:13:03;;;;;;;6.13;4.75;;;27.60;81.30;;;;;;5069983;28;20028;-66
2022/06/30 10:15:34;;;;;;;7.13;4.93;;;27.60;81.10;;;;;;5071335;28;20039;-65
2022/06/30 10:18:01;;;;;;;7.45;4.70;;;27.70;81.30;;;;;;5069301;28;20048;-67
2022/06/30 10:20:28;;;;;;;8.07;4.70;;;27.70;81.70;;;;;;5067118;28;20060;-67
2022/06/30 10:22:54;;;;;;;11.77;4.57;;;27.80;81.40;;;;;;5070932;28;20139;-67
2022/06/30 10:25:20;;;;;;;8.48;5.13;;;27.80;81.60;;;;;;5070558;28;20479;-67
2022/06/30 10:27:47;;;;;;;9.48;5.40;;;27.90;81.30;;;;;;5053774;28;20104;-67
2022/06/30 10:30:15;;;;;;;6.07;4.60;;;27.90;81.30;;;;;;5051872;28;20113;-67
2022/06/30 10:33:04;;;;;;;6.90;4.07;;;27.90;80.70;;;;;;5058606;28;20541;-67
2022/06/30 10:35:56;;;;;;;8.15;4.47;;;28.00;80.80;;;;;;5067952;28;20055;-67
2022/06/30 10:38:34;;;;;;;11.82;4.90;;;28.00;80.00;;;;;;5065330;28;20033;-67
2022/06/30 10:41:17;;;;;;;8.15;4.15;;;28.00;80.70;;;;;;5070760;28;20578;-67
2022/06/30 10:44:04;;;;;;;7.80;5.03;;;28.00;80.90;;;;;;5054456;28;20045;-67
2022/06/30 10:46:45;;;;;;;8.82;5.03;;;28.00;80.30;;;;;;5055935;28;20031;-67
2022/06/30 10:49:12;;;;;;;10.43;5.40;;;28.00;80.50;;;;;;5059336;28;20675;-67
2022/06/30 10:51:39;;;;;;;13.63;5.50;;;28.00;81.00;;;;;;5068321;28;20043;-67
2022/06/30 10:54:06;;;;;;;12.93;5.50;;;28.00;80.70;;;;;;5071006;28;20032;-67
2022/06/30 10:56:50;;;;;;;6.97;4.90;;;28.10;80.20;;;;;;5064473;28;20158;-68
2022/06/30 10:59:29;;;;;;;8.50;5.53;;;28.20;81.00;;;;;;5061413;28;20037;-68
2022/06/30 11:02:15;;;;;;;3.85;2.67;;;28.30;80.40;;;;;;5065850;28;20029;-68
2022/06/30 11:04:42;;;;;;;8.10;4.05;;;28.30;80.00;;;;;;5067721;28;20028;-68
2022/06/30 11:07:14;;;;;;;7.38;3.95;;;28.30;78.10;;;;;;5064381;28;20048;-68
2022/06/30 11:09:49;;;;;;;8.68;5.00;;;28.20;77.30;;;;;;5065765;28;20573;-68
2022/06/30 11:12:24;;;;;;;6.15;4.70;;;28.20;78.00;;;;;;5063552;28;20502;-68
2022/06/30 11:14:55;;;;;;;8.05;4.47;;;28.20;78.40;;;;;;5063858;28;20037;-68
2022/06/30 11:17:23;;;;;;;10.10;4.88;;;28.30;78.70;;;;;;5062141;28;20025;-67
2022/06/30 11:20:06;;;;;;;10.73;5.28;;;28.20;78.70;;;;;;5070205;28;20071;-68
2022/06/30 11:22:33;;;;;;;10.70;5.38;;;28.30;78.30;;;;;;5063194;28;20040;-70
2022/06/30 11:25:03;;;;;;;7.43;5.07;;;28.40;78.80;;;;;;5065251;28;20493;-67
2022/06/30 11:27:31;;;;;;;10.95;5.45;;;28.40;79.20;;;;;;5055560;28;20025;-67
2022/06/30 11:30:06;;;;;;;8.43;5.95;;;28.40;78.50;;;;;;5070876;28;20460;-67
2022/06/30 11:32:33;;;;;;;8.77;5.60;;;28.50;78.10;;;;;;5066429;28;20401;-67
2022/06/30 11:34:59;;;;;;;10.07;6.35;;;28.50;79.20;;;;;;5069891;28;20017;-67
2022/06/30 11:37:27;;;;;;;8.18;4.97;;;28.50;78.30;;;;;;5066139;28;20021;-67
2022/06/30 11:40:01;;;;;;;8.65;5.60;;;28.50;78.10;;;;;;5067086;28;20028;-67
2022/06/30 11:42:27;;;;;;;8.80;5.80;;;28.60;78.20;;;;;;5066493;28;20029;-68
2022/06/30 11:44:53;;;;;;;7.90;6.00;;;28.60;78.70;;;;;;5071039;28;20020;-68
2022/06/30 11:47:20;;;;;;;8.10;5.47;;;28.60;78.10;;;;;;5074342;28;20024;-68
2022/06/30 11:49:52;;;;;;;10.10;5.70;;;28.60;78.40;;;;;;5066119;28;20556;-68
2022/06/30 11:52:23;;;;;;;11.30;6.22;;;28.60;78.70;;;;;;5069993;28;20020;-68
2022/06/30 11:54:58;;;;;;;9.52;6.03;;;28.60;78.00;;;;;;5073224;28;20075;-68
2022/06/30 11:57:25;;;;;;;16.67;6.13;;;28.80;79.10;;;;;;5073176;28;20079;-68
2022/06/30 11:59:57;;;;;;;8.55;5.50;;;28.70;78.20;;;;;;5067677;28;20050;-68
2022/06/30 12:02:23;;;;;;;10.00;5.53;;;28.70;77.80;;;;;;5074055;28;20031;-68
2022/06/30 12:04:54;;;;;;;7.20;5.40;;;28.70;78.30;;;;;;5070415;28;20112;-67
2022/06/30 12:07:21;;;;;;;9.02;5.93;;;28.70;77.70;;;;;;5073954;28;20051;-67
2022/06/30 12:09:47;;;;;;;9.55;5.55;;;28.70;78.20;;;;;;5069072;28;20060;-65
2022/06/30 12:12:13;;;;;;;8.50;5.10;;;28.80;78.70;;;;;;5065285;28;20028;-68
2022/06/30 12:14:40;;;;;;;8.38;5.32;;;28.80;79.10;;;;;;5066411;28;20062;-68
2022/06/30 12:17:16;;;;;;;20.52;3.92;;;28.80;80.00;;;;;;5064232;28;20052;-68
2022/06/30 12:19:42;;;;;;;6.60;3.50;;;28.70;79.70;;;;;;5055511;28;20109;-68
2022/06/30 12:22:08;;;;;;;9.18;5.15;;;28.60;80.10;;;;;;5067732;28;20064;-68
2022/06/30 12:24:40;;;;;;;12.70;6.10;;;28.50;80.30;;;;;;5058938;28;20403;-68
2022/06/30 12:27:06;;;;;;;14.20;4.50;;;28.50;80.40;;;;;;5073497;28;20020;-66
2022/06/30 12:29:35;;;;;;;9.82;6.60;;;28.40;80.70;;;;;;5061485;28;20116;-68
2022/06/30 12:32:09;;;;;;;11.35;7.65;;;28.30;81.20;;;;;;5067919;28;20024;-66
2022/06/30 12:34:53;;;;;;;18.63;6.95;;;28.30;81.00;;;;;;5066125;28;20031;-66
2022/06/30 12:37:39;;;;;;;11.63;7.07;;;28.30;81.60;;;;;;5069935;28;20040;-66
2022/06/30 12:40:08;;;;;;;8.77;5.45;;;28.30;82.20;;;;;;5067776;28;20072;-66
2022/06/30 12:42:39;;;;;;;9.02;5.55;;;28.30;81.90;;;;;;5068698;28;20048;-66
2022/06/30 12:45:05;;;;;;;6.35;4.60;;;28.30;81.90;;;;;;5071020;28;20085;-66
2022/06/30 12:47:31;;;;;;;5.22;3.80;;;28.30;81.80;;;;;;5070268;28;20043;-66
2022/06/30 12:49:57;;;;;;;8.20;5.68;;;28.30;81.70;;;;;;5072169;28;20020;-66
2022/06/30 12:52:23;;;;;;;8.45;6.10;;;28.30;81.80;;;;;;5068923;28;20040;-66
2022/06/30 12:54:58;;;;;;;7.70;5.50;;;28.40;81.50;;;;;;5066170;28;20478;-66
2022/06/30 12:57:25;;;;;;;7.05;4.80;;;28.40;81.30;;;;;;5070352;28;20029;-66
2022/06/30 12:59:56;;;;;;;9.13;5.10;;;28.30;81.20;;;;;;5069168;28;20094;-66
2022/06/30 13:02:37;;;;;;;6.03;4.70;;;28.40;80.80;;;;;;5068111;28;20468;-66
2022/06/30 13:05:04;;;;;;;7.65;5.28;;;28.40;81.70;;;;;;5067009;28;20036;-67